Denmark, Wisconsin
Current Conditions -  °F | °C
As of 8:56 PM on Monday 26 Jan 2015 (Local Time) from KMTW Reporting Station
Unknown Precip Unknown Precip  
Wind Chill: 14°   Ceiling: 1500
Heat Index: 26°   Visibility: 10mi
Dew Point: 21°   Wind: 15mph
Humidity: 81%   Direction: 150°SSE
Pressure: 29.93"   Gusts: NA
Location:  44.35°N, 87.83°W
Report Text: KMTW 270256Z AUTO 15013KT 10SM UP BKN015 OVC021 M03/M06 A2993 RMK AO2 SLP159 P0000 60000 T10331061 51010 FZRANO
Loading
Personal Weather Stations






























Interactive Weather Map New forecast layout! Learn more

10-Day Weather Forecast

Advertisements
Track Severe Weather on mobile